Fossum, Minnesota
Current Conditions -  °F | °C
As of 2:55 PM on Thursday 18 Dec 2014 (Local Time) from K3N8 Reporting Station
Overcast Overcast  
Wind Chill:   Ceiling: 6500
Heat Index: 19°   Visibility: 10mi
Dew Point: 14°   Wind: 8mph
Humidity: 80%   Direction: 150°SSE
Pressure: 30.18"   Gusts: NA
Location:  47.2382°N, 96.2513°W
Report Text: K3N8 182055Z AUTO 15007KT 10SM OVC065 M07/M10 A3018 RMK AO2 T10721101
Loading
Personal Weather Stations






























Interactive Weather Map New forecast layout! Learn more

10-Day Weather Forecast

Advertisements
Track Severe Weather on mobile